Terminal Aerodrome Forecast
Issued by NWS Portland, OR

Home | Current Version | Previous Version | Text Only | Print | Product List | Glossary On
Versions: 1 2 3 4 5 6 7 8 9 10 11 12 13 14 15 16 17 18 19 20 21 22 23 24
176
FTUS46 KPQR 301742
TAFSLE
TAF
KSLE 301742Z 3018/3118 36007KT P6SM SKC
     FM302200 35010G18KT P6SM SKC
     FM310100 33007KT P6SM SKC
     FM311400 VRB03KT P6SM SCT020=

USA.gov is the U.S. government's official web portal to all federal, state and local government web resources and services.